createdAt,value
2018-06-02T00:04:20.285Z,53.00
2018-06-02T00:09:22.841Z,56.10
2018-06-02T00:14:25.359Z,60.10
2018-06-02T00:19:27.900Z,57.57
2018-06-02T00:24:30.373Z,58.83
2018-06-02T00:29:32.886Z,59.40
2018-06-02T00:34:35.377Z,59.83
2018-06-02T00:39:37.884Z,60.30
2018-06-02T00:44:40.365Z,63.17
2018-06-02T00:49:42.899Z,62.07
2018-06-02T00:54:57.415Z,60.57
2018-06-02T01:00:00.000Z,59.60
2018-06-02T01:05:02.493Z,61.97
2018-06-02T01:10:05.033Z,56.60
2018-06-02T01:15:07.528Z,68.17
2018-06-02T01:20:10.034Z,70.10
2018-06-02T01:25:12.932Z,71.10
2018-06-02T01:30:15.711Z,59.13
2018-06-02T01:35:20.054Z,60.33
2018-06-02T01:40:22.580Z,64.10
2018-06-02T01:45:25.063Z,68.53
2018-06-02T01:50:27.576Z,64.90
2018-06-02T01:55:30.088Z,65.00
2018-06-02T02:00:32.592Z,65.50
2018-06-02T02:05:35.085Z,59.30
2018-06-02T02:10:37.592Z,61.30
2018-06-02T02:15:40.114Z,60.17
2018-06-02T02:20:42.645Z,58.23
2018-06-02T02:25:45.195Z,56.43
2018-06-02T02:30:47.725Z,57.80
2018-06-02T02:35:50.239Z,55.07
2018-06-02T02:40:52.750Z,55.83
2018-06-02T02:45:55.245Z,52.37
2018-06-02T02:50:57.773Z,54.93
2018-06-02T02:56:00.274Z,54.60
2018-06-02T03:01:02.724Z,55.03
2018-06-02T03:06:05.254Z,56.77
2018-06-02T03:11:07.759Z,51.60
2018-06-02T03:16:10.270Z,51.80
2018-06-02T03:21:12.766Z,52.87
2018-06-02T03:26:15.279Z,50.27
2018-06-02T03:31:18.001Z,51.93
2018-06-02T03:36:20.561Z,55.17
2018-06-02T03:41:23.108Z,53.47
2018-06-02T03:46:25.633Z,52.13
2018-06-02T03:51:28.222Z,51.03
2018-06-02T03:56:30.710Z,46.37
2018-06-02T04:01:33.201Z,47.10
2018-06-02T04:06:35.704Z,49.37
2018-06-02T04:11:38.249Z,46.53
2018-06-02T04:16:40.755Z,45.97
2018-06-02T04:21:43.288Z,45.97
2018-06-02T04:26:46.649Z,43.60
2018-06-02T04:31:49.166Z,45.43
2018-06-02T04:36:51.708Z,41.80
2018-06-02T04:41:54.282Z,39.17
2018-06-02T04:46:58.030Z,38.60
2018-06-02T04:52:00.551Z,36.90
2018-06-02T04:57:03.174Z,39.00
2018-06-02T05:02:05.670Z,35.43
2018-06-02T05:07:08.181Z,37.77
2018-06-02T05:12:10.725Z,36.60
2018-06-02T05:17:13.251Z,34.57
2018-06-02T05:22:15.784Z,35.67
2018-06-02T05:27:18.451Z,33.63
2018-06-02T05:32:21.349Z,32.70
2018-06-02T05:37:23.942Z,32.20
2018-06-02T05:42:26.550Z,29.33
2018-06-02T05:47:29.050Z,28.40
2018-06-02T05:52:31.576Z,25.80
2018-06-02T05:57:34.073Z,26.00
2018-06-02T06:02:36.604Z,21.67
2018-06-02T06:07:39.137Z,22.80
2018-06-02T06:12:42.765Z,21.70
2018-06-02T06:17:45.443Z,23.17
2018-06-02T06:22:48.049Z,22.43
2018-06-02T06:27:50.556Z,22.17
2018-06-02T06:32:53.097Z,22.27
2018-06-02T06:37:55.605Z,22.63
2018-06-02T06:42:58.153Z,23.90
2018-06-02T06:48:00.642Z,22.47
2018-06-02T06:53:03.146Z,23.47
2018-06-02T06:58:05.625Z,23.37
2018-06-02T07:03:08.111Z,21.40
2018-06-02T07:08:10.666Z,22.47
2018-06-02T07:13:13.757Z,22.03
2018-06-02T07:18:16.352Z,22.70
2018-06-02T07:23:18.873Z,23.00
2018-06-02T07:28:21.451Z,23.33
2018-06-02T07:33:23.915Z,22.30
2018-06-02T07:38:27.418Z,23.03
2018-06-02T07:43:29.958Z,23.90
2018-06-02T07:48:32.473Z,23.37
2018-06-02T07:53:35.103Z,22.70
2018-06-02T07:58:37.635Z,21.70
2018-06-02T08:03:40.128Z,23.35
2018-06-02T08:08:42.910Z,24.00
2018-06-02T08:13:45.515Z,22.97
2018-06-02T08:18:48.129Z,22.02
2018-06-02T08:23:50.694Z,25.45
2018-06-02T08:28:53.232Z,36.00
2018-06-02T08:33:55.780Z,38.77
2018-06-02T08:38:58.288Z,38.90
2018-06-02T08:44:00.908Z,33.90
2018-06-02T08:49:03.411Z,38.90
2018-06-02T08:54:05.896Z,39.47
2018-06-02T08:59:08.393Z,36.30
2018-06-02T09:04:10.889Z,37.80
2018-06-02T09:09:13.499Z,33.00
2018-06-02T09:14:16.085Z,34.17
2018-06-02T09:19:18.673Z,34.00
2018-06-02T09:24:21.428Z,35.97
2018-06-02T09:29:23.970Z,37.60
2018-06-02T09:34:26.514Z,35.47
2018-06-02T09:39:28.974Z,34.90
2018-06-02T09:44:31.474Z,36.00
2018-06-02T09:49:34.037Z,33.17
2018-06-02T09:54:36.501Z,33.72
2018-06-02T09:59:39.009Z,34.60
2018-06-02T10:04:41.953Z,32.10
2018-06-02T10:09:45.261Z,30.77
2018-06-02T10:14:47.785Z,24.67
2018-06-02T10:19:50.313Z,27.67
2018-06-02T10:24:52.848Z,23.50
2018-06-02T10:29:55.368Z,26.00
2018-06-02T10:34:57.899Z,29.83
2018-06-02T10:40:00.371Z,28.70
2018-06-02T10:45:02.878Z,27.60
2018-06-02T10:50:05.540Z,25.30
2018-06-02T10:55:08.047Z,27.50
2018-06-02T11:00:10.635Z,27.97
2018-06-02T11:05:13.100Z,22.97
2018-06-02T11:10:15.621Z,31.83
2018-06-02T11:15:18.181Z,35.47
2018-06-02T11:20:20.643Z,36.90
2018-06-02T11:25:23.150Z,34.27
2018-06-02T11:30:25.645Z,31.37
2018-06-02T11:35:28.138Z,32.40
2018-06-02T11:40:30.667Z,28.70
2018-06-02T11:45:33.186Z,26.70
2018-06-02T11:50:35.709Z,26.00
2018-06-02T11:55:38.190Z,24.52
2018-06-02T12:00:40.699Z,27.23
2018-06-02T12:05:43.228Z,25.67
2018-06-02T12:10:45.941Z,28.70
2018-06-02T12:15:48.498Z,29.67
2018-06-02T12:20:51.022Z,28.40
2018-06-02T12:25:53.583Z,32.83
2018-06-02T12:30:56.071Z,32.90
2018-06-02T12:35:58.627Z,31.60
2018-06-02T12:41:01.122Z,30.67
2018-06-02T12:46:03.619Z,28.77
2018-06-02T12:51:06.154Z,28.93
2018-06-02T12:56:08.638Z,28.40
2018-06-02T13:01:11.173Z,26.37
2018-06-02T13:06:13.791Z,23.53
2018-06-02T13:11:16.336Z,29.47
2018-06-02T13:16:18.835Z,28.90
2018-06-02T13:21:21.335Z,29.17
2018-06-02T13:26:23.861Z,27.53
2018-06-02T13:31:33.951Z,26.47
2018-06-02T13:36:36.441Z,27.17
2018-06-02T13:41:38.938Z,27.33
2018-06-02T13:46:42.169Z,29.73
2018-06-02T13:51:45.557Z,29.13
2018-06-02T13:56:48.049Z,31.03
2018-06-02T14:01:50.618Z,29.27
2018-06-02T14:06:53.181Z,27.13
2018-06-02T14:11:55.723Z,27.53
2018-06-02T14:16:58.223Z,25.97
2018-06-02T14:22:00.861Z,23.67
2018-06-02T14:27:03.992Z,21.17
2018-06-02T14:32:06.531Z,20.60
2018-06-02T14:37:09.168Z,20.07
2018-06-02T14:42:11.565Z,18.60
2018-06-02T14:47:14.194Z,15.77
2018-06-02T14:52:16.805Z,16.93
2018-06-02T14:57:19.363Z,16.20
2018-06-02T15:02:21.979Z,16.90
2018-06-02T15:07:24.546Z,17.20
2018-06-02T15:12:27.094Z,15.03
2018-06-02T15:17:29.594Z,16.47
2018-06-02T15:22:32.095Z,15.63
2018-06-02T15:27:34.602Z,15.17
2018-06-02T15:32:37.098Z,15.10
2018-06-02T15:37:39.693Z,17.67
2018-06-02T15:42:42.183Z,17.80
2018-06-02T15:47:44.740Z,16.63
2018-06-02T15:52:47.286Z,18.03
2018-06-02T15:57:49.886Z,21.33
2018-06-02T16:02:52.462Z,21.07
2018-06-02T16:07:55.348Z,23.30
2018-06-02T16:12:57.954Z,22.07
2018-06-02T16:18:00.445Z,24.33
2018-06-02T16:23:02.936Z,23.53
2018-06-02T16:28:05.432Z,24.30
2018-06-02T16:33:07.992Z,24.00
2018-06-02T16:38:10.512Z,25.20
2018-06-02T16:43:13.087Z,24.87
2018-06-02T16:48:15.603Z,22.90
2018-06-02T16:53:18.148Z,23.97
2018-06-02T16:58:20.668Z,24.03
2018-06-02T17:03:23.350Z,21.47
2018-06-02T17:08:25.848Z,24.67
2018-06-02T17:13:28.420Z,26.47
2018-06-02T17:18:30.907Z,24.17
2018-06-02T17:23:33.410Z,23.47
2018-06-02T17:28:35.920Z,23.73
2018-06-02T17:33:38.524Z,21.80
2018-06-02T17:38:40.988Z,23.03
2018-06-02T17:43:43.524Z,20.83
2018-06-02T17:48:46.186Z,23.77
2018-06-02T17:53:48.733Z,23.80
2018-06-02T17:58:51.260Z,23.73
2018-06-02T18:03:53.924Z,23.87
2018-06-02T18:08:56.412Z,25.40
2018-06-02T18:13:59.124Z,22.70
2018-06-02T18:19:01.598Z,23.73
2018-06-02T18:24:04.144Z,22.33
2018-06-02T18:29:06.664Z,23.57
2018-06-02T18:34:09.173Z,21.73
2018-06-02T18:39:11.728Z,25.37
2018-06-02T18:44:14.682Z,25.37
2018-06-02T18:49:17.228Z,25.70
2018-06-02T18:54:19.750Z,26.10
2018-06-02T18:59:22.406Z,24.57
2018-06-02T19:04:25.436Z,25.20
2018-06-02T19:09:28.044Z,25.73
2018-06-02T19:14:30.826Z,24.37
2018-06-02T19:19:34.361Z,25.57
2018-06-02T19:24:36.907Z,24.57
2018-06-02T19:29:39.688Z,25.17
2018-06-02T19:34:43.075Z,24.13
2018-06-02T19:39:45.879Z,25.27
2018-06-02T19:44:49.444Z,24.30
2018-06-02T19:49:52.070Z,26.03
2018-06-02T19:54:55.391Z,25.23
2018-06-02T19:59:58.611Z,26.33
2018-06-02T20:05:02.122Z,26.27
2018-06-02T20:10:04.879Z,25.10
2018-06-02T20:15:08.270Z,26.40
2018-06-02T20:20:10.761Z,26.07
2018-06-02T20:25:13.283Z,24.83
2018-06-02T20:30:16.041Z,24.37
2018-06-02T20:35:18.782Z,26.03
2018-06-02T20:40:21.698Z,24.87
2018-06-02T20:45:26.825Z,26.90
2018-06-02T20:50:30.672Z,26.33
2018-06-02T20:55:33.144Z,25.13
2018-06-02T21:00:37.374Z,26.83
2018-06-02T21:05:42.768Z,27.53
2018-06-02T21:10:45.663Z,26.27
2018-06-02T21:15:48.343Z,28.17
2018-06-02T21:20:52.781Z,26.87
2018-06-02T21:25:55.893Z,26.03
2018-06-02T21:30:58.544Z,26.73
2018-06-02T21:36:01.036Z,26.80
2018-06-02T21:41:04.942Z,26.93
2018-06-02T21:46:09.978Z,26.83
2018-06-02T21:51:14.812Z,29.00
2018-06-02T21:56:18.139Z,30.03
2018-06-02T22:01:20.822Z,27.93
2018-06-02T22:06:23.688Z,29.30
2018-06-02T22:11:26.219Z,31.03
2018-06-02T22:16:28.935Z,30.70
2018-06-02T22:21:33.257Z,29.57
2018-06-02T22:26:35.766Z,30.30
2018-06-02T22:31:38.251Z,30.00
2018-06-02T22:36:40.765Z,30.00
2018-06-02T22:41:43.284Z,28.90
2018-06-02T22:46:45.808Z,29.60
2018-06-02T22:51:57.132Z,32.30
2018-06-02T22:56:59.604Z,30.60
2018-06-02T23:02:02.144Z,30.77
2018-06-02T23:07:04.605Z,30.27
2018-06-02T23:12:07.088Z,29.50
2018-06-02T23:17:09.566Z,33.53
2018-06-02T23:28:15.583Z,35.47
2018-06-02T23:33:19.115Z,37.20
2018-06-02T23:38:22.307Z,36.07
2018-06-02T23:43:25.472Z,35.53
2018-06-02T23:48:28.717Z,33.13
2018-06-02T23:53:31.911Z,35.57
2018-06-02T23:58:35.015Z,34.40
